sensor_id;sensor_type;location;lat;lon;timestamp;P1;durP1;ratioP1;P2;durP2;ratioP2
48578;SDS011;34357;51.948;6.132;2023-04-29T00:00:06;65.53;;;39.00;;
48578;SDS011;34357;51.948;6.132;2023-04-29T00:02:39;68.88;;;41.65;;
48578;SDS011;34357;51.948;6.132;2023-04-29T00:05:05;73.72;;;42.10;;
48578;SDS011;34357;51.948;6.132;2023-04-29T00:07:31;66.78;;;42.15;;
48578;SDS011;34357;51.948;6.132;2023-04-29T00:09:58;69.35;;;43.08;;
48578;SDS011;34357;51.948;6.132;2023-04-29T00:12:24;69.53;;;43.85;;
48578;SDS011;34357;51.948;6.132;2023-04-29T00:14:50;72.10;;;42.88;;
48578;SDS011;34357;51.948;6.132;2023-04-29T00:17:15;72.55;;;44.60;;
48578;SDS011;34357;51.948;6.132;2023-04-29T00:19:41;68.45;;;42.67;;
48578;SDS011;34357;51.948;6.132;2023-04-29T00:22:07;73.45;;;44.65;;
48578;SDS011;34357;51.948;6.132;2023-04-29T00:24:33;70.68;;;43.80;;
48578;SDS011;34357;51.948;6.132;2023-04-29T00:26:59;72.35;;;43.95;;
48578;SDS011;34357;51.948;6.132;2023-04-29T00:29:26;74.03;;;44.63;;
48578;SDS011;34357;51.948;6.132;2023-04-29T00:31:52;72.35;;;44.45;;
48578;SDS011;34357;51.948;6.132;2023-04-29T00:34:18;74.93;;;46.00;;
48578;SDS011;34357;51.948;6.132;2023-04-29T00:36:44;76.53;;;45.13;;
48578;SDS011;34357;51.948;6.132;2023-04-29T00:39:10;75.72;;;45.22;;
48578;SDS011;34357;51.948;6.132;2023-04-29T00:41:37;76.85;;;46.45;;
48578;SDS011;34357;51.948;6.132;2023-04-29T00:44:03;74.25;;;44.45;;
48578;SDS011;34357;51.948;6.132;2023-04-29T00:46:29;73.47;;;43.80;;
48578;SDS011;34357;51.948;6.132;2023-04-29T00:48:55;73.97;;;44.75;;
48578;SDS011;34357;51.948;6.132;2023-04-29T00:51:21;77.78;;;44.95;;
48578;SDS011;34357;51.948;6.132;2023-04-29T00:53:47;74.32;;;45.50;;
48578;SDS011;34357;51.948;6.132;2023-04-29T00:56:13;79.10;;;44.88;;
48578;SDS011;34357;51.948;6.132;2023-04-29T00:58:40;67.47;;;42.50;;
48578;SDS011;34357;51.948;6.132;2023-04-29T01:01:13;75.00;;;42.45;;
48578;SDS011;34357;51.948;6.132;2023-04-29T01:03:40;70.15;;;43.63;;
48578;SDS011;34357;51.948;6.132;2023-04-29T01:06:08;70.35;;;42.25;;
48578;SDS011;34357;51.948;6.132;2023-04-29T01:11:34;67.70;;;40.95;;
48578;SDS011;34357;51.948;6.132;2023-04-29T01:14:06;61.53;;;40.10;;
48578;SDS011;34357;51.948;6.132;2023-04-29T01:16:36;72.38;;;42.85;;
48578;SDS011;34357;51.948;6.132;2023-04-29T01:21:45;67.07;;;41.53;;
48578;SDS011;34357;51.948;6.132;2023-04-29T01:24:14;65.00;;;41.63;;
48578;SDS011;34357;51.948;6.132;2023-04-29T01:26:44;67.18;;;40.33;;
48578;SDS011;34357;51.948;6.132;2023-04-29T01:32:30;66.25;;;40.33;;
48578;SDS011;34357;51.948;6.132;2023-04-29T01:35:50;61.35;;;39.78;;
48578;SDS011;34357;51.948;6.132;2023-04-29T01:38:22;64.10;;;39.22;;
48578;SDS011;34357;51.948;6.132;2023-04-29T01:41:17;65.90;;;39.78;;
48578;SDS011;34357;51.948;6.132;2023-04-29T01:44:12;64.05;;;40.60;;
48578;SDS011;34357;51.948;6.132;2023-04-29T01:46:42;61.17;;;39.78;;
48578;SDS011;34357;51.948;6.132;2023-04-29T01:49:13;68.38;;;40.90;;
48578;SDS011;34357;51.948;6.132;2023-04-29T01:51:39;69.97;;;40.30;;
48578;SDS011;34357;51.948;6.132;2023-04-29T01:54:04;65.18;;;39.90;;
48578;SDS011;34357;51.948;6.132;2023-04-29T01:56:31;66.40;;;41.08;;
48578;SDS011;34357;51.948;6.132;2023-04-29T01:59:01;65.03;;;40.83;;
48578;SDS011;34357;51.948;6.132;2023-04-29T02:01:49;61.88;;;39.63;;
48578;SDS011;34357;51.948;6.132;2023-04-29T02:04:15;62.85;;;38.20;;
48578;SDS011;34357;51.948;6.132;2023-04-29T02:06:42;62.60;;;39.05;;
48578;SDS011;34357;51.948;6.132;2023-04-29T02:09:08;62.15;;;38.53;;
48578;SDS011;34357;51.948;6.132;2023-04-29T02:11:34;65.25;;;39.25;;
48578;SDS011;34357;51.948;6.132;2023-04-29T02:14:00;60.58;;;38.38;;
48578;SDS011;34357;51.948;6.132;2023-04-29T02:16:26;63.22;;;38.45;;
48578;SDS011;34357;51.948;6.132;2023-04-29T02:18:56;58.70;;;36.28;;
48578;SDS011;34357;51.948;6.132;2023-04-29T02:21:22;58.13;;;35.85;;
48578;SDS011;34357;51.948;6.132;2023-04-29T02:23:48;54.17;;;34.55;;
48578;SDS011;34357;51.948;6.132;2023-04-29T02:26:14;53.55;;;32.88;;
48578;SDS011;34357;51.948;6.132;2023-04-29T02:28:40;56.65;;;33.95;;
48578;SDS011;34357;51.948;6.132;2023-04-29T02:31:06;52.92;;;32.83;;
48578;SDS011;34357;51.948;6.132;2023-04-29T02:33:32;52.85;;;32.40;;
48578;SDS011;34357;51.948;6.132;2023-04-29T02:35:58;51.22;;;31.38;;
48578;SDS011;34357;51.948;6.132;2023-04-29T02:38:24;48.70;;;30.52;;
48578;SDS011;34357;51.948;6.132;2023-04-29T02:40:50;48.58;;;31.38;;
48578;SDS011;34357;51.948;6.132;2023-04-29T02:43:16;45.95;;;29.55;;
48578;SDS011;34357;51.948;6.132;2023-04-29T02:45:43;44.35;;;28.98;;
48578;SDS011;34357;51.948;6.132;2023-04-29T02:48:09;44.45;;;26.88;;
48578;SDS011;34357;51.948;6.132;2023-04-29T02:50:35;42.20;;;26.13;;
48578;SDS011;34357;51.948;6.132;2023-04-29T02:53:02;44.92;;;26.55;;
48578;SDS011;34357;51.948;6.132;2023-04-29T02:55:28;42.83;;;26.33;;
48578;SDS011;34357;51.948;6.132;2023-04-29T02:57:58;41.50;;;26.38;;
48578;SDS011;34357;51.948;6.132;2023-04-29T03:00:23;39.97;;;27.13;;
48578;SDS011;34357;51.948;6.132;2023-04-29T03:02:49;40.92;;;26.55;;
48578;SDS011;34357;51.948;6.132;2023-04-29T03:05:15;39.90;;;26.85;;
48578;SDS011;34357;51.948;6.132;2023-04-29T03:07:41;41.35;;;25.95;;
48578;SDS011;34357;51.948;6.132;2023-04-29T03:10:08;39.38;;;27.20;;
48578;SDS011;34357;51.948;6.132;2023-04-29T03:12:35;43.75;;;27.73;;
48578;SDS011;34357;51.948;6.132;2023-04-29T03:15:01;40.83;;;27.60;;
48578;SDS011;34357;51.948;6.132;2023-04-29T03:17:27;40.58;;;27.38;;
48578;SDS011;34357;51.948;6.132;2023-04-29T03:19:53;38.17;;;27.25;;
48578;SDS011;34357;51.948;6.132;2023-04-29T03:22:19;40.90;;;26.17;;
48578;SDS011;34357;51.948;6.132;2023-04-29T03:24:44;41.38;;;27.60;;
48578;SDS011;34357;51.948;6.132;2023-04-29T03:27:10;39.50;;;26.90;;
48578;SDS011;34357;51.948;6.132;2023-04-29T03:29:36;38.70;;;26.17;;
48578;SDS011;34357;51.948;6.132;2023-04-29T03:32:02;38.75;;;25.50;;
48578;SDS011;34357;51.948;6.132;2023-04-29T03:34:28;39.20;;;25.90;;
48578;SDS011;34357;51.948;6.132;2023-04-29T03:37:13;39.03;;;26.55;;
48578;SDS011;34357;51.948;6.132;2023-04-29T03:39:44;41.90;;;27.33;;
48578;SDS011;34357;51.948;6.132;2023-04-29T03:42:12;38.03;;;27.13;;
48578;SDS011;34357;51.948;6.132;2023-04-29T03:44:38;44.25;;;25.95;;
48578;SDS011;34357;51.948;6.132;2023-04-29T03:47:04;42.22;;;25.83;;
48578;SDS011;34357;51.948;6.132;2023-04-29T03:49:30;38.45;;;24.73;;
48578;SDS011;34357;51.948;6.132;2023-04-29T03:51:56;35.33;;;25.17;;
48578;SDS011;34357;51.948;6.132;2023-04-29T03:54:22;39.28;;;26.35;;
48578;SDS011;34357;51.948;6.132;2023-04-29T03:56:48;35.17;;;25.33;;
48578;SDS011;34357;51.948;6.132;2023-04-29T03:59:14;38.35;;;25.95;;
48578;SDS011;34357;51.948;6.132;2023-04-29T04:01:40;40.75;;;26.63;;
48578;SDS011;34357;51.948;6.132;2023-04-29T04:04:06;38.22;;;26.63;;
48578;SDS011;34357;51.948;6.132;2023-04-29T04:06:33;42.60;;;28.08;;
48578;SDS011;34357;51.948;6.132;2023-04-29T04:08:59;40.35;;;26.35;;
48578;SDS011;34357;51.948;6.132;2023-04-29T04:11:28;42.00;;;26.83;;
48578;SDS011;34357;51.948;6.132;2023-04-29T04:13:56;36.38;;;25.80;;
48578;SDS011;34357;51.948;6.132;2023-04-29T04:16:22;45.67;;;28.52;;
48578;SDS011;34357;51.948;6.132;2023-04-29T04:18:48;41.05;;;27.90;;
48578;SDS011;34357;51.948;6.132;2023-04-29T04:21:14;44.30;;;29.48;;
48578;SDS011;34357;51.948;6.132;2023-04-29T04:23:44;41.83;;;26.15;;
48578;SDS011;34357;51.948;6.132;2023-04-29T04:26:13;43.72;;;28.98;;
48578;SDS011;34357;51.948;6.132;2023-04-29T04:28:59;40.90;;;28.50;;
48578;SDS011;34357;51.948;6.132;2023-04-29T04:31:44;44.47;;;28.05;;
48578;SDS011;34357;51.948;6.132;2023-04-29T04:34:10;44.22;;;29.55;;
48578;SDS011;34357;51.948;6.132;2023-04-29T04:36:36;41.58;;;28.55;;
48578;SDS011;34357;51.948;6.132;2023-04-29T04:39:02;44.55;;;29.08;;
48578;SDS011;34357;51.948;6.132;2023-04-29T04:41:30;40.53;;;28.73;;
48578;SDS011;34357;51.948;6.132;2023-04-29T04:43:56;46.05;;;28.77;;
48578;SDS011;34357;51.948;6.132;2023-04-29T04:46:37;39.85;;;27.63;;
48578;SDS011;34357;51.948;6.132;2023-04-29T04:49:26;38.78;;;27.17;;
48578;SDS011;34357;51.948;6.132;2023-04-29T04:51:52;41.40;;;27.38;;
48578;SDS011;34357;51.948;6.132;2023-04-29T04:54:18;40.95;;;27.17;;
48578;SDS011;34357;51.948;6.132;2023-04-29T04:56:46;42.17;;;27.00;;
48578;SDS011;34357;51.948;6.132;2023-04-29T04:59:12;36.63;;;25.33;;
48578;SDS011;34357;51.948;6.132;2023-04-29T05:01:39;41.60;;;26.90;;
48578;SDS011;34357;51.948;6.132;2023-04-29T05:04:05;41.20;;;26.13;;
48578;SDS011;34357;51.948;6.132;2023-04-29T05:06:31;36.80;;;25.83;;
48578;SDS011;34357;51.948;6.132;2023-04-29T05:08:56;40.67;;;27.20;;
48578;SDS011;34357;51.948;6.132;2023-04-29T05:11:23;45.63;;;26.83;;
48578;SDS011;34357;51.948;6.132;2023-04-29T05:14:03;36.55;;;25.65;;
48578;SDS011;34357;51.948;6.132;2023-04-29T05:16:29;36.70;;;25.83;;
48578;SDS011;34357;51.948;6.132;2023-04-29T05:18:55;36.92;;;25.42;;
48578;SDS011;34357;51.948;6.132;2023-04-29T05:21:25;37.63;;;26.15;;
48578;SDS011;34357;51.948;6.132;2023-04-29T05:23:51;43.85;;;28.60;;
48578;SDS011;34357;51.948;6.132;2023-04-29T05:26:17;36.53;;;26.95;;
48578;SDS011;34357;51.948;6.132;2023-04-29T05:28:42;36.92;;;26.58;;
48578;SDS011;34357;51.948;6.132;2023-04-29T05:31:08;40.20;;;27.50;;
48578;SDS011;34357;51.948;6.132;2023-04-29T05:33:34;40.15;;;26.83;;
48578;SDS011;34357;51.948;6.132;2023-04-29T05:36:00;44.88;;;27.50;;
48578;SDS011;34357;51.948;6.132;2023-04-29T05:38:26;38.67;;;27.48;;
48578;SDS011;34357;51.948;6.132;2023-04-29T05:41:04;41.15;;;27.48;;
48578;SDS011;34357;51.948;6.132;2023-04-29T05:43:48;41.75;;;28.55;;
48578;SDS011;34357;51.948;6.132;2023-04-29T05:46:15;38.35;;;27.52;;
48578;SDS011;34357;51.948;6.132;2023-04-29T05:48:41;38.78;;;27.75;;
48578;SDS011;34357;51.948;6.132;2023-04-29T05:51:08;41.88;;;28.90;;
48578;SDS011;34357;51.948;6.132;2023-04-29T05:53:34;40.40;;;26.98;;
48578;SDS011;34357;51.948;6.132;2023-04-29T05:56:02;37.85;;;27.33;;
48578;SDS011;34357;51.948;6.132;2023-04-29T05:58:32;41.13;;;27.30;;
48578;SDS011;34357;51.948;6.132;2023-04-29T06:01:01;37.67;;;27.02;;
48578;SDS011;34357;51.948;6.132;2023-04-29T06:03:28;39.47;;;27.52;;
48578;SDS011;34357;51.948;6.132;2023-04-29T06:06:10;37.17;;;25.67;;
48578;SDS011;34357;51.948;6.132;2023-04-29T06:08:59;34.15;;;26.23;;
48578;SDS011;34357;51.948;6.132;2023-04-29T06:11:27;35.67;;;26.45;;
48578;SDS011;34357;51.948;6.132;2023-04-29T06:13:53;39.63;;;27.10;;
48578;SDS011;34357;51.948;6.132;2023-04-29T06:16:19;36.72;;;26.80;;
48578;SDS011;34357;51.948;6.132;2023-04-29T06:18:45;38.88;;;25.48;;
48578;SDS011;34357;51.948;6.132;2023-04-29T06:21:12;39.33;;;26.67;;
48578;SDS011;34357;51.948;6.132;2023-04-29T06:23:38;36.13;;;26.63;;
48578;SDS011;34357;51.948;6.132;2023-04-29T06:26:10;37.05;;;26.05;;
48578;SDS011;34357;51.948;6.132;2023-04-29T06:28:35;44.00;;;25.90;;
48578;SDS011;34357;51.948;6.132;2023-04-29T06:31:01;36.08;;;25.67;;
48578;SDS011;34357;51.948;6.132;2023-04-29T06:33:28;38.67;;;26.92;;
48578;SDS011;34357;51.948;6.132;2023-04-29T06:35:54;39.88;;;25.30;;
48578;SDS011;34357;51.948;6.132;2023-04-29T06:38:38;41.90;;;24.92;;
48578;SDS011;34357;51.948;6.132;2023-04-29T06:41:23;40.78;;;25.15;;
48578;SDS011;34357;51.948;6.132;2023-04-29T06:44:00;33.22;;;24.98;;
48578;SDS011;34357;51.948;6.132;2023-04-29T06:46:26;37.00;;;24.05;;
48578;SDS011;34357;51.948;6.132;2023-04-29T06:49:06;36.95;;;25.55;;
48578;SDS011;34357;51.948;6.132;2023-04-29T06:51:32;38.33;;;23.98;;
48578;SDS011;34357;51.948;6.132;2023-04-29T06:53:59;34.03;;;24.27;;
48578;SDS011;34357;51.948;6.132;2023-04-29T06:56:34;36.67;;;24.63;;
48578;SDS011;34357;51.948;6.132;2023-04-29T06:59:00;38.85;;;25.55;;
48578;SDS011;34357;51.948;6.132;2023-04-29T07:01:26;39.10;;;25.15;;
48578;SDS011;34357;51.948;6.132;2023-04-29T07:03:52;36.85;;;23.48;;
48578;SDS011;34357;51.948;6.132;2023-04-29T07:06:17;36.17;;;24.60;;
48578;SDS011;34357;51.948;6.132;2023-04-29T07:08:43;35.08;;;24.00;;
48578;SDS011;34357;51.948;6.132;2023-04-29T07:11:09;32.75;;;22.67;;
48578;SDS011;34357;51.948;6.132;2023-04-29T07:13:35;37.38;;;23.52;;
48578;SDS011;34357;51.948;6.132;2023-04-29T07:16:01;32.45;;;22.77;;
48578;SDS011;34357;51.948;6.132;2023-04-29T07:18:26;36.70;;;22.15;;
48578;SDS011;34357;51.948;6.132;2023-04-29T07:20:52;31.77;;;22.50;;
48578;SDS011;34357;51.948;6.132;2023-04-29T07:23:20;35.35;;;23.10;;
48578;SDS011;34357;51.948;6.132;2023-04-29T07:25:45;31.13;;;21.60;;
48578;SDS011;34357;51.948;6.132;2023-04-29T07:28:12;31.27;;;22.95;;
48578;SDS011;34357;51.948;6.132;2023-04-29T07:30:38;33.47;;;22.05;;
48578;SDS011;34357;51.948;6.132;2023-04-29T07:33:04;32.97;;;21.45;;
48578;SDS011;34357;51.948;6.132;2023-04-29T07:35:30;35.90;;;21.20;;
48578;SDS011;34357;51.948;6.132;2023-04-29T07:37:56;33.25;;;22.33;;
48578;SDS011;34357;51.948;6.132;2023-04-29T07:40:23;36.28;;;21.35;;
48578;SDS011;34357;51.948;6.132;2023-04-29T07:42:51;31.50;;;21.50;;
48578;SDS011;34357;51.948;6.132;2023-04-29T07:45:17;33.75;;;20.15;;
48578;SDS011;34357;51.948;6.132;2023-04-29T07:47:43;31.95;;;20.05;;
48578;SDS011;34357;51.948;6.132;2023-04-29T07:50:09;31.17;;;20.20;;
48578;SDS011;34357;51.948;6.132;2023-04-29T07:52:37;28.83;;;19.58;;
48578;SDS011;34357;51.948;6.132;2023-04-29T07:55:03;31.70;;;19.23;;
48578;SDS011;34357;51.948;6.132;2023-04-29T07:57:29;36.70;;;20.30;;
48578;SDS011;34357;51.948;6.132;2023-04-29T07:59:55;29.67;;;18.92;;
48578;SDS011;34357;51.948;6.132;2023-04-29T08:02:21;28.58;;;19.25;;
48578;SDS011;34357;51.948;6.132;2023-04-29T08:04:47;25.65;;;18.15;;
48578;SDS011;34357;51.948;6.132;2023-04-29T08:07:16;30.20;;;19.27;;
48578;SDS011;34357;51.948;6.132;2023-04-29T08:09:41;27.80;;;18.90;;
48578;SDS011;34357;51.948;6.132;2023-04-29T08:12:09;26.77;;;17.42;;
48578;SDS011;34357;51.948;6.132;2023-04-29T08:14:34;28.45;;;17.23;;
48578;SDS011;34357;51.948;6.132;2023-04-29T08:17:00;27.98;;;17.02;;
48578;SDS011;34357;51.948;6.132;2023-04-29T08:19:26;24.00;;;17.90;;
48578;SDS011;34357;51.948;6.132;2023-04-29T08:21:52;25.23;;;16.38;;
48578;SDS011;34357;51.948;6.132;2023-04-29T08:24:21;26.85;;;16.77;;
48578;SDS011;34357;51.948;6.132;2023-04-29T08:26:47;23.52;;;16.23;;
48578;SDS011;34357;51.948;6.132;2023-04-29T08:29:13;26.13;;;17.25;;
48578;SDS011;34357;51.948;6.132;2023-04-29T08:31:39;23.27;;;16.17;;
48578;SDS011;34357;51.948;6.132;2023-04-29T08:34:05;22.90;;;16.27;;
48578;SDS011;34357;51.948;6.132;2023-04-29T08:36:30;25.40;;;15.65;;
48578;SDS011;34357;51.948;6.132;2023-04-29T08:38:56;27.48;;;17.50;;
48578;SDS011;34357;51.948;6.132;2023-04-29T08:41:22;23.98;;;16.55;;
48578;SDS011;34357;51.948;6.132;2023-04-29T08:43:49;23.75;;;16.38;;
48578;SDS011;34357;51.948;6.132;2023-04-29T08:46:15;23.73;;;16.50;;
48578;SDS011;34357;51.948;6.132;2023-04-29T08:48:42;25.42;;;16.45;;
48578;SDS011;34357;51.948;6.132;2023-04-29T08:51:10;23.52;;;16.40;;
48578;SDS011;34357;51.948;6.132;2023-04-29T08:53:37;24.45;;;15.68;;
48578;SDS011;34357;51.948;6.132;2023-04-29T08:56:08;22.23;;;15.85;;
48578;SDS011;34357;51.948;6.132;2023-04-29T08:58:37;24.88;;;16.08;;
48578;SDS011;34357;51.948;6.132;2023-04-29T09:01:07;26.30;;;15.98;;
48578;SDS011;34357;51.948;6.132;2023-04-29T09:06:23;23.75;;;15.68;;
48578;SDS011;34357;51.948;6.132;2023-04-29T09:08:49;20.77;;;14.32;;
48578;SDS011;34357;51.948;6.132;2023-04-29T09:11:14;22.33;;;13.95;;
48578;SDS011;34357;51.948;6.132;2023-04-29T09:13:41;27.35;;;14.30;;
48578;SDS011;34357;51.948;6.132;2023-04-29T09:16:10;18.20;;;13.10;;
48578;SDS011;34357;51.948;6.132;2023-04-29T09:18:46;20.90;;;13.98;;
48578;SDS011;34357;51.948;6.132;2023-04-29T09:21:15;23.27;;;14.93;;
48578;SDS011;34357;51.948;6.132;2023-04-29T09:23:42;21.98;;;14.63;;
48578;SDS011;34357;51.948;6.132;2023-04-29T09:26:08;20.45;;;13.68;;
48578;SDS011;34357;51.948;6.132;2023-04-29T09:28:34;20.63;;;13.40;;
48578;SDS011;34357;51.948;6.132;2023-04-29T09:31:03;21.45;;;12.98;;
48578;SDS011;34357;51.948;6.132;2023-04-29T09:33:31;22.63;;;12.85;;
48578;SDS011;34357;51.948;6.132;2023-04-29T09:36:13;17.67;;;12.73;;
48578;SDS011;34357;51.948;6.132;2023-04-29T09:38:59;18.75;;;12.30;;
48578;SDS011;34357;51.948;6.132;2023-04-29T09:41:25;19.60;;;12.55;;
48578;SDS011;34357;51.948;6.132;2023-04-29T09:44:04;20.33;;;12.68;;
48578;SDS011;34357;51.948;6.132;2023-04-29T09:46:34;20.70;;;12.00;;
48578;SDS011;34357;51.948;6.132;2023-04-29T09:49:03;19.70;;;12.70;;
48578;SDS011;34357;51.948;6.132;2023-04-29T09:51:53;17.80;;;11.98;;
48578;SDS011;34357;51.948;6.132;2023-04-29T09:54:21;19.02;;;11.40;;
48578;SDS011;34357;51.948;6.132;2023-04-29T09:56:53;16.70;;;11.13;;
48578;SDS011;34357;51.948;6.132;2023-04-29T09:59:19;16.15;;;11.93;;
48578;SDS011;34357;51.948;6.132;2023-04-29T10:01:55;17.73;;;11.35;;
48578;SDS011;34357;51.948;6.132;2023-04-29T10:04:24;15.20;;;11.88;;
48578;SDS011;34357;51.948;6.132;2023-04-29T10:06:55;15.73;;;11.27;;
48578;SDS011;34357;51.948;6.132;2023-04-29T10:09:21;17.27;;;10.85;;
48578;SDS011;34357;51.948;6.132;2023-04-29T10:11:48;16.58;;;10.75;;
48578;SDS011;34357;51.948;6.132;2023-04-29T10:14:19;14.27;;;10.60;;
48578;SDS011;34357;51.948;6.132;2023-04-29T10:16:49;15.52;;;9.93;;
48578;SDS011;34357;51.948;6.132;2023-04-29T10:19:33;15.35;;;9.70;;
48578;SDS011;34357;51.948;6.132;2023-04-29T10:22:08;13.05;;;10.55;;
48578;SDS011;34357;51.948;6.132;2023-04-29T10:24:41;16.08;;;11.35;;
48578;SDS011;34357;51.948;6.132;2023-04-29T10:27:08;14.30;;;10.15;;
48578;SDS011;34357;51.948;6.132;2023-04-29T10:29:36;14.15;;;10.00;;
48578;SDS011;34357;51.948;6.132;2023-04-29T10:32:06;11.55;;;8.70;;
48578;SDS011;34357;51.948;6.132;2023-04-29T10:34:33;13.95;;;8.90;;
48578;SDS011;34357;51.948;6.132;2023-04-29T10:37:03;13.63;;;8.82;;
48578;SDS011;34357;51.948;6.132;2023-04-29T10:40:13;15.73;;;9.27;;
48578;SDS011;34357;51.948;6.132;2023-04-29T10:42:36;10.50;;;8.95;;
48578;SDS011;34357;51.948;6.132;2023-04-29T10:51:12;12.57;;;8.45;;
48578;SDS011;34357;51.948;6.132;2023-04-29T10:53:13;10.75;;;7.65;;
48578;SDS011;34357;51.948;6.132;2023-04-29T10:55:40;11.63;;;7.38;;
48578;SDS011;34357;51.948;6.132;2023-04-29T11:01:00;10.68;;;7.25;;
48578;SDS011;34357;51.948;6.132;2023-04-29T11:06:25;12.15;;;7.68;;
48578;SDS011;34357;51.948;6.132;2023-04-29T11:09:13;10.80;;;7.35;;
48578;SDS011;34357;51.948;6.132;2023-04-29T11:17:02;10.30;;;7.93;;
48578;SDS011;34357;51.948;6.132;2023-04-29T11:19:33;10.05;;;6.63;;
48578;SDS011;34357;51.948;6.132;2023-04-29T11:22:07;9.27;;;6.93;;
48578;SDS011;34357;51.948;6.132;2023-04-29T11:24:34;10.95;;;7.57;;
48578;SDS011;34357;51.948;6.132;2023-04-29T11:27:03;10.45;;;7.65;;
48578;SDS011;34357;51.948;6.132;2023-04-29T11:29:30;7.47;;;5.80;;
48578;SDS011;34357;51.948;6.132;2023-04-29T11:32:06;8.18;;;6.07;;
48578;SDS011;34357;51.948;6.132;2023-04-29T11:34:32;11.25;;;6.85;;
48578;SDS011;34357;51.948;6.132;2023-04-29T11:36:58;10.68;;;6.20;;
48578;SDS011;34357;51.948;6.132;2023-04-29T11:39:25;10.65;;;6.55;;
48578;SDS011;34357;51.948;6.132;2023-04-29T11:42:01;8.95;;;6.75;;
48578;SDS011;34357;51.948;6.132;2023-04-29T11:44:32;9.98;;;6.63;;
48578;SDS011;34357;51.948;6.132;2023-04-29T11:47:04;10.82;;;6.50;;
48578;SDS011;34357;51.948;6.132;2023-04-29T11:49:31;6.88;;;5.65;;
48578;SDS011;34357;51.948;6.132;2023-04-29T11:51:58;8.95;;;6.20;;
48578;SDS011;34357;51.948;6.132;2023-04-29T11:54:28;8.90;;;5.45;;
48578;SDS011;34357;51.948;6.132;2023-04-29T11:56:54;8.40;;;5.30;;
48578;SDS011;34357;51.948;6.132;2023-04-29T11:59:20;7.55;;;6.05;;
48578;SDS011;34357;51.948;6.132;2023-04-29T12:01:47;8.32;;;4.88;;
48578;SDS011;34357;51.948;6.132;2023-04-29T12:04:13;10.02;;;5.80;;
48578;SDS011;34357;51.948;6.132;2023-04-29T12:06:40;8.43;;;5.63;;
48578;SDS011;34357;51.948;6.132;2023-04-29T12:09:06;12.60;;;6.43;;
48578;SDS011;34357;51.948;6.132;2023-04-29T12:11:32;9.40;;;6.07;;
48578;SDS011;34357;51.948;6.132;2023-04-29T12:13:59;9.55;;;6.28;;
48578;SDS011;34357;51.948;6.132;2023-04-29T12:16:33;8.15;;;5.30;;
48578;SDS011;34357;51.948;6.132;2023-04-29T12:18:59;8.38;;;5.82;;
48578;SDS011;34357;51.948;6.132;2023-04-29T12:21:26;9.32;;;5.28;;
48578;SDS011;34357;51.948;6.132;2023-04-29T12:23:51;6.88;;;4.97;;
48578;SDS011;34357;51.948;6.132;2023-04-29T12:26:18;8.35;;;5.20;;
48578;SDS011;34357;51.948;6.132;2023-04-29T12:28:45;9.90;;;5.68;;
48578;SDS011;34357;51.948;6.132;2023-04-29T12:31:13;9.20;;;5.20;;
48578;SDS011;34357;51.948;6.132;2023-04-29T12:33:41;17.90;;;13.50;;
48578;SDS011;34357;51.948;6.132;2023-04-29T12:36:14;49.15;;;34.45;;
48578;SDS011;34357;51.948;6.132;2023-04-29T12:38:46;11.38;;;8.20;;
48578;SDS011;34357;51.948;6.132;2023-04-29T12:41:12;13.45;;;8.48;;
48578;SDS011;34357;51.948;6.132;2023-04-29T12:43:41;7.55;;;5.32;;
48578;SDS011;34357;51.948;6.132;2023-04-29T12:46:08;8.27;;;5.15;;
48578;SDS011;34357;51.948;6.132;2023-04-29T12:48:35;8.75;;;5.40;;
48578;SDS011;34357;51.948;6.132;2023-04-29T12:51:11;5.50;;;4.38;;
48578;SDS011;34357;51.948;6.132;2023-04-29T12:53:37;7.65;;;5.47;;
48578;SDS011;34357;51.948;6.132;2023-04-29T12:56:06;6.95;;;5.30;;
48578;SDS011;34357;51.948;6.132;2023-04-29T12:58:32;8.30;;;5.45;;
48578;SDS011;34357;51.948;6.132;2023-04-29T13:01:01;7.72;;;5.50;;
48578;SDS011;34357;51.948;6.132;2023-04-29T13:03:27;9.13;;;6.57;;
48578;SDS011;34357;51.948;6.132;2023-04-29T13:05:52;7.47;;;5.05;;
48578;SDS011;34357;51.948;6.132;2023-04-29T13:08:18;7.00;;;5.28;;
48578;SDS011;34357;51.948;6.132;2023-04-29T13:10:45;7.75;;;4.78;;
48578;SDS011;34357;51.948;6.132;2023-04-29T13:13:11;6.63;;;4.75;;
48578;SDS011;34357;51.948;6.132;2023-04-29T13:15:37;6.30;;;4.40;;
48578;SDS011;34357;51.948;6.132;2023-04-29T13:18:06;5.30;;;4.05;;
48578;SDS011;34357;51.948;6.132;2023-04-29T13:20:32;6.53;;;4.15;;
48578;SDS011;34357;51.948;6.132;2023-04-29T13:22:59;6.30;;;4.32;;
48578;SDS011;34357;51.948;6.132;2023-04-29T13:25:25;7.35;;;4.53;;
48578;SDS011;34357;51.948;6.132;2023-04-29T13:27:51;4.38;;;3.33;;
48578;SDS011;34357;51.948;6.132;2023-04-29T13:30:16;7.25;;;3.97;;
48578;SDS011;34357;51.948;6.132;2023-04-29T13:32:42;6.78;;;4.40;;
48578;SDS011;34357;51.948;6.132;2023-04-29T13:35:08;6.00;;;4.13;;
48578;SDS011;34357;51.948;6.132;2023-04-29T13:37:34;7.55;;;4.60;;
48578;SDS011;34357;51.948;6.132;2023-04-29T13:40:00;6.00;;;4.28;;
48578;SDS011;34357;51.948;6.132;2023-04-29T13:42:26;5.35;;;4.40;;
48578;SDS011;34357;51.948;6.132;2023-04-29T13:44:51;8.98;;;4.63;;
48578;SDS011;34357;51.948;6.132;2023-04-29T13:47:21;7.78;;;4.60;;
48578;SDS011;34357;51.948;6.132;2023-04-29T13:49:47;7.30;;;4.57;;
48578;SDS011;34357;51.948;6.132;2023-04-29T13:52:13;8.70;;;4.22;;
48578;SDS011;34357;51.948;6.132;2023-04-29T13:54:39;7.78;;;3.72;;
48578;SDS011;34357;51.948;6.132;2023-04-29T13:57:05;8.00;;;3.95;;
48578;SDS011;34357;51.948;6.132;2023-04-29T13:59:31;6.32;;;3.25;;
48578;SDS011;34357;51.948;6.132;2023-04-29T14:01:58;6.50;;;3.83;;
48578;SDS011;34357;51.948;6.132;2023-04-29T14:04:24;5.82;;;3.95;;
48578;SDS011;34357;51.948;6.132;2023-04-29T14:06:50;6.65;;;3.90;;
48578;SDS011;34357;51.948;6.132;2023-04-29T14:09:16;4.07;;;3.17;;
48578;SDS011;34357;51.948;6.132;2023-04-29T14:11:44;5.68;;;3.80;;
48578;SDS011;34357;51.948;6.132;2023-04-29T14:14:10;6.32;;;3.65;;
48578;SDS011;34357;51.948;6.132;2023-04-29T14:16:36;7.95;;;3.97;;
48578;SDS011;34357;51.948;6.132;2023-04-29T14:19:02;4.68;;;3.88;;
48578;SDS011;34357;51.948;6.132;2023-04-29T14:21:28;5.30;;;4.22;;
48578;SDS011;34357;51.948;6.132;2023-04-29T14:23:55;6.00;;;3.75;;
48578;SDS011;34357;51.948;6.132;2023-04-29T14:26:21;7.35;;;3.40;;
48578;SDS011;34357;51.948;6.132;2023-04-29T14:28:48;7.00;;;3.40;;
48578;SDS011;34357;51.948;6.132;2023-04-29T14:31:21;7.35;;;4.43;;
48578;SDS011;34357;51.948;6.132;2023-04-29T14:33:48;8.57;;;4.60;;
48578;SDS011;34357;51.948;6.132;2023-04-29T14:36:15;6.03;;;3.70;;
48578;SDS011;34357;51.948;6.132;2023-04-29T14:38:41;7.63;;;4.15;;
48578;SDS011;34357;51.948;6.132;2023-04-29T14:41:07;5.53;;;3.60;;
48578;SDS011;34357;51.948;6.132;2023-04-29T14:43:34;6.38;;;3.75;;
48578;SDS011;34357;51.948;6.132;2023-04-29T14:45:59;6.68;;;3.63;;
48578;SDS011;34357;51.948;6.132;2023-04-29T14:48:25;8.13;;;3.50;;
48578;SDS011;34357;51.948;6.132;2023-04-29T14:50:53;7.53;;;3.45;;
48578;SDS011;34357;51.948;6.132;2023-04-29T14:53:19;8.40;;;3.83;;
48578;SDS011;34357;51.948;6.132;2023-04-29T14:55:45;3.47;;;3.03;;
48578;SDS011;34357;51.948;6.132;2023-04-29T14:58:11;9.35;;;4.82;;
48578;SDS011;34357;51.948;6.132;2023-04-29T15:00:37;9.43;;;5.40;;
48578;SDS011;34357;51.948;6.132;2023-04-29T15:03:03;5.82;;;3.50;;